Springridge, Louisiana
Current Conditions -  °F | °C
As of 1:29 AM on Thursday 18 Dec 2014 (Local Time) from KSHV Reporting Station
Overcast Overcast  
Wind Chill: 41°   Ceiling: 600
Heat Index: 45°   Visibility: 10mi
Dew Point: 43°   Wind: 7mph
Humidity: 93%   Direction: 60°ENE
Pressure: 30.18"   Gusts: NA
Location:  32.3035°N, 93.9134°W
Report Text: KSHV 180729Z 06006KT 10SM BKN006 OVC030 07/06 A3018 RMK AO2 T00720061
Loading
Personal Weather Stations






























Interactive Weather Map New forecast layout! Learn more

10-Day Weather Forecast

Advertisements
Track Severe Weather on mobile